createdAt,value
2023-05-04T00:03:29.326Z,9.80
2023-05-04T00:07:11.658Z,9.80
2023-05-04T00:10:55.852Z,9.80
2023-05-04T00:14:38.124Z,9.70
2023-05-04T00:18:20.021Z,9.70
2023-05-04T00:22:02.255Z,9.70
2023-05-04T00:25:44.142Z,9.60
2023-05-04T00:29:26.068Z,9.60
2023-05-04T00:33:08.214Z,9.60
2023-05-04T00:36:50.179Z,9.50
2023-05-04T00:40:32.123Z,9.40
2023-05-04T00:44:14.336Z,9.40
2023-05-04T00:47:56.857Z,9.30
2023-05-04T00:51:38.800Z,9.30
2023-05-04T00:55:21.099Z,9.20
2023-05-04T00:59:03.000Z,9.10
2023-05-04T01:02:44.975Z,9.10
2023-05-04T01:06:48.055Z,9.00
2023-05-04T01:10:54.592Z,8.90
2023-05-04T01:14:37.233Z,8.80
2023-05-04T01:18:19.138Z,8.80
2023-05-04T01:22:01.240Z,8.70
2023-05-04T01:25:55.143Z,8.70
2023-05-04T01:29:53.651Z,8.70
2023-05-04T01:33:36.647Z,8.60
2023-05-04T01:37:18.656Z,8.60
2023-05-04T01:41:00.629Z,8.60
2023-05-04T01:44:42.545Z,8.50
2023-05-04T01:48:24.493Z,8.50
2023-05-04T01:52:06.427Z,8.50
2023-05-04T01:55:48.338Z,8.40
2023-05-04T01:59:30.456Z,8.40
2023-05-04T02:03:12.783Z,8.40
2023-05-04T02:06:54.765Z,8.40
2023-05-04T02:10:36.657Z,8.40
2023-05-04T02:14:18.556Z,8.40
2023-05-04T02:18:00.485Z,8.40
2023-05-04T02:21:42.557Z,8.40
2023-05-04T02:25:24.488Z,8.40
2023-05-04T02:29:06.408Z,8.40
2023-05-04T02:32:48.376Z,8.40
2023-05-04T02:36:30.342Z,8.40
2023-05-04T02:40:12.951Z,8.40
2023-05-04T02:43:54.910Z,8.40
2023-05-04T02:47:36.864Z,8.40
2023-05-04T02:51:19.236Z,8.40
2023-05-04T02:55:02.536Z,8.40
2023-05-04T02:58:44.421Z,8.30
2023-05-04T03:02:26.841Z,8.30
2023-05-04T03:06:08.821Z,8.30
2023-05-04T03:09:50.793Z,8.20
2023-05-04T03:13:32.720Z,8.20
2023-05-04T03:17:14.594Z,8.20
2023-05-04T03:20:56.685Z,8.20
2023-05-04T03:24:39.825Z,8.10
2023-05-04T03:28:21.714Z,8.10
2023-05-04T03:32:03.711Z,8.10
2023-05-04T03:35:45.654Z,8.20
2023-05-04T03:39:27.524Z,8.10
2023-05-04T03:43:09.436Z,8.20
2023-05-04T03:46:51.486Z,8.20
2023-05-04T03:50:33.375Z,8.30
2023-05-04T03:54:15.261Z,8.30
2023-05-04T03:57:58.198Z,8.30
2023-05-04T04:01:40.134Z,8.30
2023-05-04T04:05:22.079Z,8.30
2023-05-04T04:09:04.017Z,8.40
2023-05-04T04:12:46.004Z,8.40
2023-05-04T04:16:27.960Z,8.40
2023-05-04T04:20:10.512Z,8.40
2023-05-04T04:23:52.388Z,8.40
2023-05-04T04:27:36.521Z,8.50
2023-05-04T04:31:19.329Z,8.50
2023-05-04T04:35:01.310Z,8.60
2023-05-04T04:38:43.647Z,8.60
2023-05-04T04:42:25.688Z,8.60
2023-05-04T04:46:08.319Z,8.60
2023-05-04T04:49:50.203Z,8.60
2023-05-04T04:53:32.086Z,8.60
2023-05-04T04:57:13.992Z,8.60
2023-05-04T05:00:58.402Z,8.60
2023-05-04T05:04:43.453Z,8.60
2023-05-04T05:08:25.346Z,8.60
2023-05-04T05:12:07.289Z,8.60
2023-05-04T05:15:49.257Z,8.60
2023-05-04T05:19:34.178Z,8.60
2023-05-04T05:23:16.507Z,8.70
2023-05-04T05:26:58.561Z,8.70
2023-05-04T05:30:40.472Z,8.80
2023-05-04T05:34:22.374Z,8.90
2023-05-04T05:38:04.297Z,8.90
2023-05-04T05:41:46.866Z,9.00
2023-05-04T05:45:28.855Z,9.10
2023-05-04T05:49:11.490Z,9.10
2023-05-04T05:52:53.425Z,9.20
2023-05-04T05:56:35.540Z,9.30
2023-05-04T06:00:18.011Z,9.40
2023-05-04T06:04:00.257Z,9.50
2023-05-04T06:07:42.347Z,9.60
2023-05-04T06:11:24.258Z,9.70
2023-05-04T06:15:07.440Z,9.80
2023-05-04T06:18:49.388Z,9.80
2023-05-04T06:22:32.129Z,9.90
2023-05-04T06:26:14.058Z,10.00
2023-05-04T06:29:56.112Z,10.20
2023-05-04T06:33:38.878Z,10.30
2023-05-04T06:37:20.884Z,10.50
2023-05-04T06:41:02.760Z,10.70
2023-05-04T06:44:44.703Z,10.80
2023-05-04T06:48:26.708Z,11.00
2023-05-04T06:52:08.602Z,11.30
2023-05-04T06:55:50.624Z,11.50
2023-05-04T06:59:32.577Z,11.80
2023-05-04T07:03:14.572Z,11.90
2023-05-04T07:06:56.584Z,12.10
2023-05-04T07:10:38.604Z,12.40
2023-05-04T07:14:20.495Z,12.50
2023-05-04T07:18:02.561Z,12.60
2023-05-04T07:21:44.499Z,12.70
2023-05-04T07:25:27.141Z,12.90
2023-05-04T07:29:09.769Z,13.00
2023-05-04T07:32:52.111Z,13.20
2023-05-04T07:36:37.064Z,13.20
2023-05-04T07:40:19.156Z,13.50
2023-05-04T07:44:01.135Z,13.80
2023-05-04T07:47:43.151Z,14.00
2023-05-04T07:51:25.084Z,14.10
2023-05-04T07:55:08.044Z,14.20
2023-05-04T07:58:50.080Z,14.10
2023-05-04T08:02:32.054Z,14.20
2023-05-04T08:06:14.249Z,14.70
2023-05-04T08:09:57.260Z,15.40
2023-05-04T08:13:40.354Z,15.90
2023-05-04T08:17:22.502Z,16.30
2023-05-04T08:21:04.615Z,16.40
2023-05-04T08:24:49.555Z,16.50
2023-05-04T08:28:40.002Z,16.80
2023-05-04T08:32:21.962Z,17.10
2023-05-04T08:36:05.411Z,17.20
2023-05-04T08:39:47.383Z,17.20
2023-05-04T08:43:29.503Z,17.50
2023-05-04T08:47:11.572Z,17.60
2023-05-04T08:50:53.807Z,17.50
2023-05-04T08:54:36.225Z,17.30
2023-05-04T08:58:20.960Z,17.00
2023-05-04T09:02:04.206Z,16.80
2023-05-04T09:05:46.416Z,16.70
2023-05-04T09:09:29.280Z,16.70
2023-05-04T09:13:11.360Z,16.90
2023-05-04T09:16:53.405Z,17.20
2023-05-04T09:20:46.894Z,17.70
2023-05-04T09:24:29.957Z,18.10
2023-05-04T09:28:11.961Z,18.30
2023-05-04T09:31:55.543Z,18.60
2023-05-04T09:35:42.992Z,18.80
2023-05-04T09:39:24.914Z,19.20
2023-05-04T09:43:08.304Z,19.80
2023-05-04T09:46:58.151Z,19.90
2023-05-04T09:50:40.346Z,19.60
2023-05-04T09:54:22.448Z,19.20
2023-05-04T09:58:05.629Z,19.20
2023-05-04T10:01:48.122Z,19.50
2023-05-04T10:05:30.163Z,20.10
2023-05-04T10:09:13.319Z,20.90
2023-05-04T10:12:55.502Z,21.10
2023-05-04T10:16:49.093Z,21.00
2023-05-04T10:20:44.419Z,20.90
2023-05-04T10:24:54.823Z,20.60
2023-05-04T10:28:59.589Z,20.50
2023-05-04T10:32:41.674Z,20.50
2023-05-04T10:36:23.648Z,20.40
2023-05-04T10:40:07.866Z,20.30
2023-05-04T10:43:53.234Z,20.10
2023-05-04T10:47:37.122Z,19.90
2023-05-04T10:51:24.403Z,19.70
2023-05-04T10:55:09.046Z,19.50
2023-05-04T10:58:51.295Z,19.30
2023-05-04T11:02:35.249Z,19.30
2023-05-04T11:06:24.063Z,19.30
2023-05-04T11:10:08.348Z,19.20
2023-05-04T11:13:50.439Z,19.10
2023-05-04T11:17:33.036Z,18.90
2023-05-04T11:21:27.195Z,18.80
2023-05-04T11:25:09.470Z,18.70
2023-05-04T11:28:51.744Z,18.60
2023-05-04T11:32:38.946Z,18.50
2023-05-04T11:36:22.653Z,18.40
2023-05-04T11:40:16.446Z,18.30
2023-05-04T11:44:00.520Z,18.10
2023-05-04T11:47:44.182Z,18.00
2023-05-04T11:51:26.437Z,17.90
2023-05-04T11:55:14.067Z,17.90
2023-05-04T11:58:55.989Z,17.90
2023-05-04T12:02:38.066Z,18.10
2023-05-04T12:06:30.768Z,18.20
2023-05-04T12:10:12.825Z,18.40
2023-05-04T12:14:07.060Z,18.60
2023-05-04T12:17:49.286Z,18.60
2023-05-04T12:21:32.048Z,18.60
2023-05-04T12:25:13.947Z,18.70
2023-05-04T12:28:56.570Z,19.00
2023-05-04T12:32:38.665Z,19.40
2023-05-04T12:36:21.594Z,19.80
2023-05-04T12:40:11.339Z,20.20
2023-05-04T12:43:59.617Z,20.40
2023-05-04T12:47:41.609Z,20.40
2023-05-04T12:51:23.545Z,20.40
2023-05-04T12:55:06.344Z,20.50
2023-05-04T12:58:48.411Z,20.60
2023-05-04T13:02:30.433Z,20.60
2023-05-04T13:06:12.618Z,20.70
2023-05-04T13:09:54.590Z,20.70
2023-05-04T13:13:37.225Z,20.80
2023-05-04T13:17:19.132Z,20.90
2023-05-04T13:21:01.234Z,21.20
2023-05-04T13:24:43.116Z,21.80
2023-05-04T13:28:25.072Z,22.50
2023-05-04T13:32:07.364Z,22.60
2023-05-04T13:35:49.238Z,22.50
2023-05-04T13:39:39.108Z,22.40
2023-05-04T13:43:22.205Z,22.70
2023-05-04T13:47:04.636Z,22.70
2023-05-04T13:50:46.933Z,22.60
2023-05-04T13:54:28.883Z,22.30
2023-05-04T13:58:11.048Z,22.00
2023-05-04T14:01:53.312Z,21.70
2023-05-04T14:05:35.840Z,21.30
2023-05-04T14:09:19.224Z,20.80
2023-05-04T14:13:01.172Z,20.50
2023-05-04T14:16:43.186Z,20.30
2023-05-04T14:20:25.127Z,20.10
2023-05-04T14:24:07.095Z,19.90
2023-05-04T14:27:49.316Z,19.70
2023-05-04T14:31:31.285Z,19.50
2023-05-04T14:35:13.260Z,19.30
2023-05-04T14:38:55.344Z,19.10
2023-05-04T14:42:37.445Z,18.90
2023-05-04T14:46:19.411Z,18.70
2023-05-04T14:50:02.362Z,18.50
2023-05-04T14:53:46.870Z,18.50
2023-05-04T14:57:28.736Z,18.80
2023-05-04T15:01:10.710Z,19.20
2023-05-04T15:04:53.030Z,19.40
2023-05-04T15:08:34.922Z,20.10
2023-05-04T15:12:17.683Z,20.90
2023-05-04T15:15:59.754Z,21.50
2023-05-04T15:19:41.784Z,22.00
2023-05-04T15:23:23.691Z,22.50
2023-05-04T15:27:06.219Z,22.70
2023-05-04T15:30:48.457Z,22.50
2023-05-04T15:34:30.447Z,22.30
2023-05-04T15:38:12.354Z,21.90
2023-05-04T15:41:54.256Z,21.40
2023-05-04T15:45:36.182Z,20.90
2023-05-04T15:49:18.148Z,20.30
2023-05-04T15:53:00.141Z,19.40
2023-05-04T15:56:42.195Z,18.50
2023-05-04T16:00:24.134Z,17.80
2023-05-04T16:04:06.098Z,17.30
2023-05-04T16:07:47.993Z,16.90
2023-05-04T16:11:30.705Z,16.50
2023-05-04T16:15:12.723Z,16.20
2023-05-04T16:18:54.714Z,15.90
2023-05-04T16:22:36.695Z,15.60
2023-05-04T16:26:18.603Z,15.50
2023-05-04T16:30:00.841Z,15.30
2023-05-04T16:33:47.304Z,15.20
2023-05-04T16:37:29.430Z,15.10
2023-05-04T16:41:11.540Z,15.00
2023-05-04T16:44:53.476Z,15.00
2023-05-04T16:48:37.257Z,15.00
2023-05-04T16:52:19.141Z,14.90
2023-05-04T16:56:01.100Z,14.90
2023-05-04T16:59:43.011Z,14.90
2023-05-04T17:03:25.029Z,14.90
2023-05-04T17:07:08.776Z,14.90
2023-05-04T17:10:52.172Z,14.90
2023-05-04T17:14:35.251Z,14.90
2023-05-04T17:18:17.186Z,14.80
2023-05-04T17:21:59.371Z,14.80
2023-05-04T17:25:41.807Z,14.80
2023-05-04T17:29:23.844Z,14.80
2023-05-04T17:33:05.880Z,14.80
2023-05-04T17:36:47.816Z,14.80
2023-05-04T17:40:29.721Z,14.70
2023-05-04T17:44:11.791Z,14.70
2023-05-04T17:47:53.928Z,14.60
2023-05-04T17:51:36.340Z,14.60
2023-05-04T17:55:18.361Z,14.60
2023-05-04T17:59:00.477Z,14.50
2023-05-04T18:02:42.555Z,14.50
2023-05-04T18:06:24.590Z,14.50
2023-05-04T18:10:07.466Z,14.50
2023-05-04T18:13:50.915Z,14.50
2023-05-04T18:17:32.889Z,14.40
2023-05-04T18:21:14.818Z,14.40
2023-05-04T18:24:56.896Z,14.30
2023-05-04T18:28:38.787Z,14.30
2023-05-04T18:32:20.679Z,14.20
2023-05-04T18:36:02.644Z,14.10
2023-05-04T18:39:44.717Z,14.10
2023-05-04T18:43:26.604Z,14.10
2023-05-04T18:47:08.999Z,14.00
2023-05-04T18:50:54.157Z,14.00
2023-05-04T18:54:36.667Z,13.90
2023-05-04T18:58:18.558Z,13.80
2023-05-04T19:02:01.891Z,13.80
2023-05-04T19:05:44.368Z,13.70
2023-05-04T19:09:26.263Z,13.70
2023-05-04T19:13:08.309Z,13.70
2023-05-04T19:16:50.406Z,13.70
2023-05-04T19:20:32.509Z,13.60
2023-05-04T19:24:14.449Z,13.60
2023-05-04T19:27:56.364Z,13.60
2023-05-04T19:31:38.486Z,13.60
2023-05-04T19:35:20.481Z,13.60
2023-05-04T19:39:02.493Z,13.60
2023-05-04T19:42:46.229Z,13.60
2023-05-04T19:46:29.748Z,13.60
2023-05-04T19:50:14.037Z,13.50
2023-05-04T19:53:56.550Z,13.50
2023-05-04T19:57:38.626Z,13.50
2023-05-04T20:01:20.657Z,13.40
2023-05-04T20:05:02.635Z,13.40
2023-05-04T20:08:44.514Z,13.40
2023-05-04T20:12:26.940Z,13.40
2023-05-04T20:16:08.866Z,13.40
2023-05-04T20:19:50.823Z,13.40
2023-05-04T20:23:32.699Z,13.40
2023-05-04T20:27:14.587Z,13.40
2023-05-04T20:30:57.363Z,13.40
2023-05-04T20:34:39.763Z,13.40
2023-05-04T20:38:21.766Z,13.40
2023-05-04T20:42:04.660Z,13.40
2023-05-04T20:45:46.572Z,13.30
2023-05-04T20:49:28.509Z,13.30
2023-05-04T20:53:10.390Z,13.30
2023-05-04T20:56:52.329Z,13.20
2023-05-04T21:00:34.221Z,13.20
2023-05-04T21:04:16.445Z,13.20
2023-05-04T21:07:58.351Z,13.20
2023-05-04T21:11:40.808Z,13.20
2023-05-04T21:15:22.725Z,13.10
2023-05-04T21:19:04.642Z,13.10
2023-05-04T21:22:46.618Z,13.00
2023-05-04T21:26:28.572Z,13.00
2023-05-04T21:30:11.229Z,13.00
2023-05-04T21:33:53.114Z,12.90
2023-05-04T21:37:35.081Z,12.90
2023-05-04T21:41:17.138Z,12.90
2023-05-04T21:44:59.044Z,12.90
2023-05-04T21:48:41.347Z,12.80
2023-05-04T21:52:23.552Z,12.80
2023-05-04T21:56:09.323Z,12.80
2023-05-04T21:59:51.260Z,12.80
2023-05-04T22:03:33.254Z,12.70
2023-05-04T22:07:15.716Z,12.70
2023-05-04T22:10:58.805Z,12.70
2023-05-04T22:14:42.439Z,12.60
2023-05-04T22:18:24.638Z,12.60
2023-05-04T22:22:06.548Z,12.60
2023-05-04T22:25:48.510Z,12.60
2023-05-04T22:29:30.611Z,12.60
2023-05-04T22:33:12.526Z,12.50
2023-05-04T22:36:54.405Z,12.50
2023-05-04T22:40:40.204Z,12.50
2023-05-04T22:44:22.472Z,12.50
2023-05-04T22:48:04.772Z,12.50
2023-05-04T22:51:46.695Z,12.40
2023-05-04T22:55:28.650Z,12.50
2023-05-04T22:59:10.573Z,12.40
2023-05-04T23:02:52.550Z,12.40
2023-05-04T23:06:34.719Z,12.40
2023-05-04T23:10:16.926Z,12.40
2023-05-04T23:13:58.849Z,12.40
2023-05-04T23:17:41.119Z,12.40
2023-05-04T23:21:23.104Z,12.40
2023-05-04T23:25:05.403Z,12.50
2023-05-04T23:28:47.362Z,12.40
2023-05-04T23:32:29.413Z,12.50
2023-05-04T23:36:11.416Z,12.50
2023-05-04T23:39:53.318Z,12.50
2023-05-04T23:43:35.192Z,12.50
2023-05-04T23:47:17.073Z,12.50
2023-05-04T23:51:06.484Z,12.50
2023-05-04T23:54:52.933Z,12.50
2023-05-04T23:58:35.184Z,12.50
